createdAt,value
2023-05-21T00:00:04.827Z,520.00
2023-05-21T00:01:04.979Z,512.00
2023-05-21T00:02:04.913Z,515.00
2023-05-21T00:03:05.086Z,517.00
2023-05-21T00:04:05.062Z,515.00
2023-05-21T00:05:05.069Z,521.00
2023-05-21T00:06:06.223Z,517.00
2023-05-21T00:07:05.103Z,516.00
2023-05-21T00:08:05.154Z,516.00
2023-05-21T00:09:05.197Z,515.00
2023-05-21T00:10:05.399Z,516.00
2023-05-21T00:11:05.247Z,509.00
2023-05-21T00:12:05.299Z,511.00
2023-05-21T00:13:05.370Z,512.00
2023-05-21T00:14:05.372Z,516.00
2023-05-21T00:15:05.416Z,512.00
2023-05-21T00:16:05.470Z,507.00
2023-05-21T00:17:05.508Z,512.00
2023-05-21T00:18:05.583Z,514.00
2023-05-21T00:19:05.774Z,513.00
2023-05-21T00:20:05.634Z,521.00
2023-05-21T00:21:05.651Z,517.00
2023-05-21T00:22:05.732Z,513.00
2023-05-21T00:23:05.738Z,510.00
2023-05-21T00:24:05.821Z,514.00
2023-05-21T00:25:06.480Z,518.00
2023-05-21T00:26:05.863Z,515.00
2023-05-21T00:27:05.926Z,519.00
2023-05-21T00:28:05.952Z,518.00
2023-05-21T00:29:05.999Z,517.00
2023-05-21T00:30:06.050Z,512.00
2023-05-21T00:31:06.058Z,513.00
2023-05-21T00:32:06.314Z,517.00
2023-05-21T00:33:06.249Z,512.00
2023-05-21T00:34:06.223Z,517.00
2023-05-21T00:35:06.233Z,514.00
2023-05-21T00:36:06.297Z,514.00
2023-05-21T00:37:06.291Z,515.00
2023-05-21T00:38:06.358Z,515.00
2023-05-21T00:39:07.329Z,515.00
2023-05-21T00:40:06.314Z,516.00
2023-05-21T00:41:06.309Z,515.00
2023-05-21T00:42:06.277Z,517.00
2023-05-21T00:43:06.289Z,525.00
2023-05-21T00:44:06.259Z,517.00
2023-05-21T00:45:06.313Z,515.00
2023-05-21T00:46:06.305Z,518.00
2023-05-21T00:47:06.242Z,518.00
2023-05-21T00:48:06.323Z,511.00
2023-05-21T00:49:06.258Z,514.00
2023-05-21T00:50:07.262Z,514.00
2023-05-21T00:51:06.202Z,515.00
2023-05-21T00:52:06.214Z,518.00
2023-05-21T00:53:06.251Z,515.00
2023-05-21T00:54:06.251Z,514.00
2023-05-21T00:55:06.204Z,514.00
2023-05-21T00:56:06.252Z,517.00
2023-05-21T00:57:06.169Z,514.00
2023-05-21T00:58:06.152Z,513.00
2023-05-21T00:59:06.207Z,518.00
2023-05-21T01:00:06.217Z,515.00
2023-05-21T01:01:06.214Z,515.00
2023-05-21T01:02:06.248Z,517.00
2023-05-21T01:03:06.417Z,511.00
2023-05-21T01:04:06.328Z,517.00
2023-05-21T01:05:06.339Z,517.00
2023-05-21T01:06:06.424Z,512.00
2023-05-21T01:07:06.433Z,513.00
2023-05-21T01:08:07.423Z,513.00
2023-05-21T01:09:06.441Z,514.00
2023-05-21T01:10:06.390Z,516.00
2023-05-21T01:11:06.411Z,514.00
2023-05-21T01:12:06.439Z,517.00
2023-05-21T01:13:06.409Z,518.00
2023-05-21T01:14:06.375Z,514.00
2023-05-21T01:15:06.386Z,516.00
2023-05-21T01:16:06.375Z,513.00
2023-05-21T01:17:06.534Z,514.00
2023-05-21T01:18:06.415Z,516.00
2023-05-21T01:19:06.425Z,511.00
2023-05-21T01:20:09.158Z,520.00
2023-05-21T01:21:06.355Z,522.00
2023-05-21T01:22:06.360Z,514.00
2023-05-21T01:23:06.371Z,509.00
2023-05-21T01:24:06.321Z,514.00
2023-05-21T01:25:06.475Z,517.00
2023-05-21T01:26:06.335Z,511.00
2023-05-21T01:27:06.345Z,511.00
2023-05-21T01:28:06.293Z,517.00
2023-05-21T01:29:06.296Z,517.00
2023-05-21T01:30:06.308Z,515.00
2023-05-21T01:31:06.265Z,517.00
2023-05-21T01:32:06.281Z,522.00
2023-05-21T01:33:06.322Z,518.00
2023-05-21T01:34:06.410Z,517.00
2023-05-21T01:35:06.248Z,514.00
2023-05-21T01:36:06.250Z,515.00
2023-05-21T01:37:06.251Z,517.00
2023-05-21T01:38:06.211Z,520.00
2023-05-21T01:39:06.214Z,511.00
2023-05-21T01:40:06.448Z,520.00
2023-05-21T01:41:06.216Z,520.00
2023-05-21T01:42:06.188Z,512.00
2023-05-21T01:43:06.244Z,512.00
2023-05-21T01:44:06.984Z,513.00
2023-05-21T01:45:06.447Z,511.00
2023-05-21T01:46:06.228Z,515.00
2023-05-21T01:47:06.144Z,517.00
2023-05-21T01:48:06.273Z,516.00
2023-05-21T01:49:06.190Z,515.00
2023-05-21T01:50:08.440Z,516.00
2023-05-21T01:51:06.148Z,516.00
2023-05-21T01:52:06.155Z,517.00
2023-05-21T01:53:06.137Z,520.00
2023-05-21T01:54:06.135Z,518.00
2023-05-21T01:55:06.437Z,522.00
2023-05-21T01:56:06.127Z,514.00
2023-05-21T01:57:06.127Z,518.00
2023-05-21T01:58:06.102Z,516.00
2023-05-21T01:59:06.096Z,511.00
2023-05-21T02:00:06.427Z,513.00
2023-05-21T02:01:06.060Z,513.00
2023-05-21T02:02:06.101Z,518.00
2023-05-21T02:03:06.107Z,515.00
2023-05-21T02:04:06.171Z,515.00
2023-05-21T02:05:06.014Z,516.00
2023-05-21T02:06:06.940Z,517.00
2023-05-21T02:07:06.057Z,519.00
2023-05-21T02:08:06.011Z,527.00
2023-05-21T02:09:06.004Z,524.00
2023-05-21T02:10:06.016Z,521.00
2023-05-21T02:11:05.993Z,517.00
2023-05-21T02:12:05.979Z,518.00
2023-05-21T02:13:06.021Z,515.00
2023-05-21T02:14:05.994Z,513.00
2023-05-21T02:15:06.037Z,517.00
2023-05-21T02:16:06.480Z,514.00
2023-05-21T02:17:06.099Z,514.00
2023-05-21T02:18:06.971Z,517.00
2023-05-21T02:19:06.172Z,515.00
2023-05-21T02:20:08.039Z,514.00
2023-05-21T02:21:06.436Z,515.00
2023-05-21T02:22:06.309Z,519.00
2023-05-21T02:23:06.359Z,516.00
2023-05-21T02:24:06.387Z,510.00
2023-05-21T02:25:06.444Z,514.00
2023-05-21T02:26:06.933Z,514.00
2023-05-21T02:27:06.545Z,519.00
2023-05-21T02:28:06.548Z,520.00
2023-05-21T02:29:06.623Z,519.00
2023-05-21T02:30:06.679Z,516.00
2023-05-21T02:31:07.006Z,519.00
2023-05-21T02:32:06.759Z,514.00
2023-05-21T02:33:06.820Z,515.00
2023-05-21T02:34:06.823Z,513.00
2023-05-21T02:35:06.847Z,516.00
2023-05-21T02:36:06.978Z,515.00
2023-05-21T02:37:06.976Z,516.00
2023-05-21T02:38:07.039Z,517.00
2023-05-21T02:39:07.039Z,515.00
2023-05-21T02:40:07.107Z,519.00
2023-05-21T02:41:07.148Z,513.00
2023-05-21T02:42:07.152Z,511.00
2023-05-21T02:43:07.210Z,513.00
2023-05-21T02:44:07.267Z,512.00
2023-05-21T02:45:07.269Z,518.00
2023-05-21T02:46:07.530Z,519.00
2023-05-21T02:47:07.398Z,513.00
2023-05-21T02:48:07.425Z,514.00
2023-05-21T02:49:07.486Z,513.00
2023-05-21T02:50:07.495Z,515.00
2023-05-21T02:51:07.570Z,514.00
2023-05-21T02:52:07.584Z,517.00
2023-05-21T02:53:07.632Z,514.00
2023-05-21T02:54:07.681Z,514.00
2023-05-21T02:55:07.641Z,515.00
2023-05-21T02:56:07.669Z,514.00
2023-05-21T02:57:07.669Z,515.00
2023-05-21T02:58:07.628Z,517.00
2023-05-21T02:59:07.620Z,516.00
2023-05-21T03:00:07.592Z,515.00
2023-05-21T03:01:07.715Z,514.00
2023-05-21T03:02:07.664Z,521.00
2023-05-21T03:03:07.701Z,517.00
2023-05-21T03:04:07.612Z,514.00
2023-05-21T03:05:07.632Z,513.00
2023-05-21T03:06:07.556Z,509.00
2023-05-21T03:07:07.595Z,515.00
2023-05-21T03:08:07.595Z,519.00
2023-05-21T03:09:07.695Z,523.00
2023-05-21T03:10:07.717Z,514.00
2023-05-21T03:11:07.957Z,516.00
2023-05-21T03:12:07.819Z,514.00
2023-05-21T03:13:09.733Z,511.00
2023-05-21T03:14:07.881Z,520.00
2023-05-21T03:15:07.878Z,516.00
2023-05-21T03:16:07.998Z,513.00
2023-05-21T03:17:08.166Z,520.00
2023-05-21T03:18:08.073Z,516.00
2023-05-21T03:19:08.137Z,518.00
2023-05-21T03:20:08.076Z,511.00
2023-05-21T03:21:08.547Z,516.00
2023-05-21T03:22:08.197Z,512.00
2023-05-21T03:23:08.207Z,514.00
2023-05-21T03:24:08.217Z,513.00
2023-05-21T03:25:08.273Z,513.00
2023-05-21T03:26:08.529Z,522.00
2023-05-21T03:27:08.344Z,513.00
2023-05-21T03:28:08.487Z,515.00
2023-05-21T03:29:08.448Z,516.00
2023-05-21T03:30:08.471Z,520.00
2023-05-21T03:31:09.481Z,515.00
2023-05-21T03:32:08.573Z,513.00
2023-05-21T03:33:08.602Z,515.00
2023-05-21T03:34:08.633Z,521.00
2023-05-21T03:35:08.626Z,512.00
2023-05-21T03:36:08.971Z,517.00
2023-05-21T03:37:08.730Z,516.00
2023-05-21T03:38:08.782Z,513.00
2023-05-21T03:39:08.804Z,517.00
2023-05-21T03:40:08.849Z,521.00
2023-05-21T03:41:08.887Z,510.00
2023-05-21T03:42:08.958Z,513.00
2023-05-21T03:43:08.966Z,518.00
2023-05-21T03:44:09.033Z,514.00
2023-05-21T03:45:09.061Z,520.00
2023-05-21T03:46:09.179Z,512.00
2023-05-21T03:47:09.074Z,518.00
2023-05-21T03:48:09.144Z,513.00
2023-05-21T03:49:09.194Z,511.00
2023-05-21T03:50:09.204Z,520.00
2023-05-21T03:51:09.291Z,517.00
2023-05-21T03:52:09.298Z,519.00
2023-05-21T03:53:09.321Z,521.00
2023-05-21T03:54:09.405Z,511.00
2023-05-21T03:55:09.420Z,516.00
2023-05-21T03:56:09.490Z,514.00
2023-05-21T03:57:09.514Z,514.00
2023-05-21T03:58:09.514Z,511.00
2023-05-21T03:59:09.572Z,520.00
2023-05-21T04:00:09.625Z,516.00
2023-05-21T04:01:09.645Z,512.00
2023-05-21T04:02:09.718Z,510.00
2023-05-21T04:03:09.873Z,515.00
2023-05-21T04:04:09.892Z,512.00
2023-05-21T04:05:09.804Z,514.00
2023-05-21T04:06:09.871Z,512.00
2023-05-21T04:07:09.883Z,510.00
2023-05-21T04:08:09.915Z,509.00
2023-05-21T04:09:09.994Z,514.00
2023-05-21T04:10:10.031Z,515.00
2023-05-21T04:11:10.048Z,514.00
2023-05-21T04:12:10.073Z,508.00
2023-05-21T04:13:10.110Z,514.00
2023-05-21T04:14:10.184Z,512.00
2023-05-21T04:15:10.228Z,512.00
2023-05-21T04:16:10.270Z,516.00
2023-05-21T04:17:10.297Z,516.00
2023-05-21T04:18:10.319Z,508.00
2023-05-21T04:19:10.391Z,514.00
2023-05-21T04:20:10.413Z,507.00
2023-05-21T04:21:10.405Z,509.00
2023-05-21T04:22:10.479Z,510.00
2023-05-21T04:23:10.496Z,514.00
2023-05-21T04:24:10.537Z,513.00
2023-05-21T04:25:10.568Z,514.00
2023-05-21T04:26:10.627Z,509.00
2023-05-21T04:27:10.664Z,514.00
2023-05-21T04:28:10.660Z,514.00
2023-05-21T04:29:10.703Z,511.00
2023-05-21T04:30:10.747Z,511.00
2023-05-21T04:31:10.796Z,516.00
2023-05-21T04:32:10.837Z,511.00
2023-05-21T04:33:10.871Z,516.00
2023-05-21T04:34:10.940Z,505.00
2023-05-21T04:35:10.958Z,506.00
2023-05-21T04:36:11.000Z,512.00
2023-05-21T04:37:11.032Z,513.00
2023-05-21T04:38:11.045Z,510.00
2023-05-21T04:39:11.086Z,514.00
2023-05-21T04:40:11.212Z,507.00
2023-05-21T04:41:11.157Z,506.00
2023-05-21T04:42:11.300Z,510.00
2023-05-21T04:43:11.244Z,504.00
2023-05-21T04:44:11.251Z,513.00
2023-05-21T04:45:11.322Z,514.00
2023-05-21T04:46:11.341Z,510.00
2023-05-21T04:47:11.348Z,509.00
2023-05-21T04:48:11.421Z,507.00
2023-05-21T04:49:11.513Z,511.00
2023-05-21T04:50:11.473Z,508.00
2023-05-21T04:51:11.984Z,512.00
2023-05-21T04:52:11.508Z,507.00
2023-05-21T04:53:11.562Z,507.00
2023-05-21T04:54:11.626Z,511.00
2023-05-21T04:55:11.631Z,507.00
2023-05-21T04:56:11.980Z,514.00
2023-05-21T04:57:11.694Z,504.00
2023-05-21T04:58:11.752Z,514.00
2023-05-21T04:59:11.868Z,514.00
2023-05-21T05:00:11.812Z,509.00
2023-05-21T05:01:11.951Z,508.00
2023-05-21T05:02:11.990Z,505.00
2023-05-21T05:03:11.986Z,503.00
2023-05-21T05:04:11.944Z,504.00
2023-05-21T05:05:12.043Z,509.00
2023-05-21T05:06:12.503Z,507.00
2023-05-21T05:07:12.063Z,503.00
2023-05-21T05:08:13.988Z,510.00
2023-05-21T05:09:12.077Z,517.00
2023-05-21T05:10:12.081Z,510.00
2023-05-21T05:11:12.507Z,505.00
2023-05-21T05:12:12.061Z,509.00
2023-05-21T05:13:12.070Z,508.00
2023-05-21T05:14:12.069Z,513.00
2023-05-21T05:15:12.079Z,508.00
2023-05-21T05:16:12.535Z,507.00
2023-05-21T05:17:12.027Z,507.00
2023-05-21T05:18:12.104Z,509.00
2023-05-21T05:19:12.086Z,506.00
2023-05-21T05:20:12.028Z,511.00
2023-05-21T05:21:12.488Z,510.00
2023-05-21T05:22:13.410Z,509.00
2023-05-21T05:23:12.025Z,506.00
2023-05-21T05:24:12.060Z,507.00
2023-05-21T05:25:11.963Z,509.00
2023-05-21T05:26:11.944Z,505.00
2023-05-21T05:27:11.963Z,510.00
2023-05-21T05:28:11.952Z,510.00
2023-05-21T05:29:11.937Z,510.00
2023-05-21T05:30:11.972Z,503.00
2023-05-21T05:31:12.072Z,509.00
2023-05-21T05:32:11.917Z,509.00
2023-05-21T05:33:11.941Z,511.00
2023-05-21T05:34:11.936Z,506.00
2023-05-21T05:35:11.903Z,505.00
2023-05-21T05:36:12.013Z,509.00
2023-05-21T05:37:11.867Z,506.00
2023-05-21T05:38:11.930Z,510.00
2023-05-21T05:39:11.848Z,512.00
2023-05-21T05:40:11.856Z,507.00
2023-05-21T05:41:12.044Z,508.00
2023-05-21T05:42:11.878Z,505.00
2023-05-21T05:43:11.905Z,504.00
2023-05-21T05:44:11.865Z,512.00
2023-05-21T05:45:11.872Z,511.00
2023-05-21T05:46:12.034Z,502.00
2023-05-21T05:47:11.928Z,507.00
2023-05-21T05:48:12.000Z,507.00
2023-05-21T05:49:11.985Z,504.00
2023-05-21T05:50:11.989Z,510.00
2023-05-21T05:51:12.526Z,509.00
2023-05-21T05:52:12.069Z,506.00
2023-05-21T05:53:12.065Z,505.00
2023-05-21T05:54:12.130Z,503.00
2023-05-21T05:55:12.183Z,505.00
2023-05-21T05:56:12.151Z,504.00
2023-05-21T05:57:12.182Z,512.00
2023-05-21T05:58:12.184Z,507.00
2023-05-21T05:59:12.275Z,508.00
2023-05-21T06:00:12.267Z,504.00
2023-05-21T06:01:12.295Z,509.00
2023-05-21T06:02:12.346Z,512.00
2023-05-21T06:03:12.425Z,509.00
2023-05-21T06:04:12.330Z,509.00
2023-05-21T06:05:12.398Z,511.00
2023-05-21T06:06:12.569Z,503.00
2023-05-21T06:07:12.423Z,507.00
2023-05-21T06:08:12.442Z,505.00
2023-05-21T06:09:12.535Z,509.00
2023-05-21T06:10:12.434Z,514.00
2023-05-21T06:11:12.446Z,505.00
2023-05-21T06:12:14.839Z,510.00
2023-05-21T06:13:12.658Z,506.00
2023-05-21T06:14:12.666Z,510.00
2023-05-21T06:15:12.698Z,509.00
2023-05-21T06:16:12.761Z,508.00
2023-05-21T06:17:12.738Z,506.00
2023-05-21T06:18:12.733Z,505.00
2023-05-21T06:19:12.803Z,513.00
2023-05-21T06:20:12.781Z,506.00
2023-05-21T06:21:13.047Z,507.00
2023-05-21T06:22:12.785Z,510.00
2023-05-21T06:23:12.836Z,512.00
2023-05-21T06:24:12.853Z,506.00
2023-05-21T06:25:12.894Z,506.00
2023-05-21T06:26:12.889Z,510.00
2023-05-21T06:27:12.879Z,509.00
2023-05-21T06:28:12.897Z,505.00
2023-05-21T06:29:14.256Z,504.00
2023-05-21T06:30:13.029Z,511.00
2023-05-21T06:31:13.018Z,505.00
2023-05-21T06:32:13.019Z,511.00
2023-05-21T06:33:13.109Z,507.00
2023-05-21T06:34:13.050Z,511.00
2023-05-21T06:35:13.039Z,511.00
2023-05-21T06:36:13.536Z,512.00
2023-05-21T06:37:13.066Z,505.00
2023-05-21T06:38:13.140Z,504.00
2023-05-21T06:39:13.131Z,511.00
2023-05-21T06:40:13.161Z,505.00
2023-05-21T06:41:13.533Z,506.00
2023-05-21T06:42:13.190Z,511.00
2023-05-21T06:43:13.168Z,507.00
2023-05-21T06:44:13.181Z,510.00
2023-05-21T06:45:13.187Z,507.00
2023-05-21T06:46:13.598Z,508.00
2023-05-21T06:47:13.190Z,510.00
2023-05-21T06:48:13.215Z,506.00
2023-05-21T06:49:14.320Z,506.00
2023-05-21T06:50:13.241Z,509.00
2023-05-21T06:51:13.271Z,512.00
2023-05-21T06:52:13.246Z,515.00
2023-05-21T06:53:13.242Z,504.00
2023-05-21T06:54:13.271Z,514.00
2023-05-21T06:55:13.259Z,508.00
2023-05-21T06:56:13.579Z,510.00
2023-05-21T06:57:13.261Z,508.00
2023-05-21T06:58:13.272Z,509.00
2023-05-21T06:59:13.316Z,513.00
2023-05-21T07:00:13.286Z,510.00
2023-05-21T07:01:13.356Z,515.00
2023-05-21T07:02:13.350Z,506.00
2023-05-21T07:03:13.405Z,510.00
2023-05-21T07:04:13.315Z,508.00
2023-05-21T07:05:13.324Z,514.00
2023-05-21T07:06:13.320Z,509.00
2023-05-21T07:07:13.334Z,507.00
2023-05-21T07:08:13.350Z,506.00
2023-05-21T07:09:13.353Z,507.00
2023-05-21T07:10:13.357Z,512.00
2023-05-21T07:11:13.404Z,505.00
2023-05-21T07:12:13.363Z,503.00
2023-05-21T07:13:13.376Z,511.00
2023-05-21T07:14:13.407Z,506.00
2023-05-21T07:15:13.384Z,510.00
2023-05-21T07:16:13.487Z,515.00
2023-05-21T07:17:13.396Z,508.00
2023-05-21T07:18:13.471Z,512.00
2023-05-21T07:19:13.451Z,509.00
2023-05-21T07:20:13.437Z,505.00
2023-05-21T07:21:13.575Z,512.00
2023-05-21T07:22:13.437Z,508.00
2023-05-21T07:23:13.437Z,510.00
2023-05-21T07:24:13.447Z,507.00
2023-05-21T07:25:13.460Z,510.00
2023-05-21T07:26:13.577Z,508.00
2023-05-21T07:27:24.665Z,507.00
2023-05-21T07:28:14.431Z,508.00
2023-05-21T07:29:13.420Z,508.00
2023-05-21T07:30:13.432Z,507.00
2023-05-21T07:31:13.437Z,510.00
2023-05-21T07:32:13.397Z,506.00
2023-05-21T07:33:13.413Z,510.00
2023-05-21T07:34:13.375Z,504.00
2023-05-21T07:35:13.366Z,508.00
2023-05-21T07:36:13.575Z,507.00
2023-05-21T07:37:13.370Z,506.00
2023-05-21T07:38:13.380Z,504.00
2023-05-21T07:39:13.350Z,509.00
2023-05-21T07:40:13.311Z,506.00
2023-05-21T07:41:13.565Z,505.00
2023-05-21T07:42:13.302Z,507.00
2023-05-21T07:43:13.314Z,503.00
2023-05-21T07:44:14.036Z,506.00
2023-05-21T07:45:13.332Z,510.00
2023-05-21T07:46:13.328Z,501.00
2023-05-21T07:47:13.307Z,507.00
2023-05-21T07:48:13.301Z,502.00
2023-05-21T07:49:13.311Z,506.00
2023-05-21T07:50:13.273Z,510.00
2023-05-21T07:51:13.326Z,506.00
2023-05-21T07:52:13.347Z,513.00
2023-05-21T07:53:13.483Z,507.00
2023-05-21T07:54:13.449Z,506.00
2023-05-21T07:55:13.503Z,508.00
2023-05-21T07:56:13.614Z,504.00
2023-05-21T07:57:13.625Z,506.00
2023-05-21T07:58:13.657Z,510.00
2023-05-21T07:59:13.955Z,511.00
2023-05-21T08:00:13.802Z,509.00
2023-05-21T08:01:13.859Z,510.00
2023-05-21T08:02:13.920Z,510.00
2023-05-21T08:03:14.068Z,506.00
2023-05-21T08:04:14.293Z,505.00
2023-05-21T08:05:14.118Z,510.00
2023-05-21T08:06:14.199Z,511.00
2023-05-21T08:07:14.209Z,508.00
2023-05-21T08:08:14.297Z,509.00
2023-05-21T08:09:14.356Z,507.00
2023-05-21T08:10:14.737Z,506.00
2023-05-21T08:11:14.497Z,506.00
2023-05-21T08:12:14.490Z,504.00
2023-05-21T08:13:14.612Z,508.00
2023-05-21T08:14:14.605Z,511.00
2023-05-21T08:15:14.731Z,506.00
2023-05-21T08:16:14.801Z,506.00
2023-05-21T08:17:14.788Z,503.00
2023-05-21T08:18:14.862Z,500.00
2023-05-21T08:19:15.013Z,506.00
2023-05-21T08:20:15.011Z,513.00
2023-05-21T08:21:15.584Z,506.00
2023-05-21T08:22:15.136Z,509.00
2023-05-21T08:23:15.177Z,509.00
2023-05-21T08:24:15.253Z,513.00
2023-05-21T08:25:15.323Z,510.00
2023-05-21T08:26:15.315Z,509.00
2023-05-21T08:27:15.412Z,509.00
2023-05-21T08:28:15.432Z,506.00
2023-05-21T08:29:15.476Z,503.00
2023-05-21T08:30:15.553Z,500.00
2023-05-21T08:31:16.099Z,507.00
2023-05-21T08:32:15.687Z,506.00
2023-05-21T08:33:15.697Z,504.00
2023-05-21T08:34:15.725Z,502.00
2023-05-21T08:35:15.785Z,503.00
2023-05-21T08:36:16.032Z,507.00
2023-05-21T08:37:15.883Z,504.00
2023-05-21T08:38:15.882Z,506.00
2023-05-21T08:39:16.044Z,504.00
2023-05-21T08:40:16.021Z,501.00
2023-05-21T08:41:16.082Z,508.00
2023-05-21T08:42:25.604Z,505.00
2023-05-21T08:43:17.067Z,506.00
2023-05-21T08:44:16.065Z,505.00
2023-05-21T08:45:16.090Z,507.00
2023-05-21T08:46:16.080Z,507.00
2023-05-21T08:47:16.054Z,507.00
2023-05-21T08:48:16.079Z,508.00
2023-05-21T08:49:16.039Z,505.00
2023-05-21T08:50:16.060Z,502.00
2023-05-21T08:51:16.045Z,504.00
2023-05-21T08:52:16.001Z,502.00
2023-05-21T08:53:27.281Z,508.00
2023-05-21T08:54:17.004Z,509.00
2023-05-21T08:55:15.995Z,510.00
2023-05-21T08:56:16.104Z,508.00
2023-05-21T08:57:16.010Z,509.00
2023-05-21T08:58:15.974Z,510.00
2023-05-21T08:59:15.992Z,507.00
2023-05-21T09:00:15.993Z,510.00
2023-05-21T09:01:16.000Z,508.00
2023-05-21T09:02:15.965Z,507.00
2023-05-21T09:03:16.018Z,517.00
2023-05-21T09:04:20.950Z,507.00
2023-05-21T09:05:16.934Z,508.00
2023-05-21T09:06:15.946Z,508.00
2023-05-21T09:07:15.946Z,507.00
2023-05-21T09:08:15.907Z,512.00
2023-05-21T09:09:15.910Z,508.00
2023-05-21T09:10:15.915Z,506.00
2023-05-21T09:11:15.935Z,504.00
2023-05-21T09:12:15.935Z,506.00
2023-05-21T09:13:15.889Z,505.00
2023-05-21T09:14:15.878Z,509.00
2023-05-21T09:15:15.855Z,508.00
2023-05-21T09:16:15.935Z,509.00
2023-05-21T09:17:15.867Z,507.00
2023-05-21T09:18:15.883Z,509.00
2023-05-21T09:19:15.873Z,508.00
2023-05-21T09:20:15.848Z,507.00
2023-05-21T09:21:16.100Z,505.00
2023-05-21T09:22:15.852Z,504.00
2023-05-21T09:23:15.869Z,507.00
2023-05-21T09:24:15.863Z,506.00
2023-05-21T09:25:15.935Z,510.00
2023-05-21T09:26:15.987Z,504.00
2023-05-21T09:27:15.905Z,510.00
2023-05-21T09:28:15.966Z,508.00
2023-05-21T09:29:15.970Z,506.00
2023-05-21T09:30:15.966Z,508.00
2023-05-21T09:31:16.065Z,503.00
2023-05-21T09:32:16.028Z,508.00
2023-05-21T09:33:16.059Z,514.00
2023-05-21T09:34:16.050Z,509.00
2023-05-21T09:35:16.066Z,514.00
2023-05-21T09:36:16.068Z,508.00
2023-05-21T09:37:26.626Z,502.00
2023-05-21T09:38:17.031Z,503.00
2023-05-21T09:39:16.060Z,505.00
2023-05-21T09:40:16.023Z,506.00
2023-05-21T09:41:19.519Z,508.00
2023-05-21T09:42:17.068Z,503.00
2023-05-21T09:43:16.042Z,505.00
2023-05-21T09:44:16.069Z,506.00
2023-05-21T09:45:16.056Z,509.00
2023-05-21T09:46:16.080Z,512.00
2023-05-21T09:47:16.577Z,512.00
2023-05-21T09:48:15.984Z,509.00
2023-05-21T09:49:15.991Z,514.00
2023-05-21T09:50:15.996Z,502.00
2023-05-21T09:51:16.170Z,505.00
2023-05-21T09:52:15.966Z,508.00
2023-05-21T09:53:15.970Z,507.00
2023-05-21T09:54:15.980Z,514.00
2023-05-21T09:55:15.977Z,509.00
2023-05-21T09:56:16.090Z,508.00
2023-05-21T09:57:15.926Z,509.00
2023-05-21T09:58:15.936Z,512.00
2023-05-21T09:59:15.968Z,510.00
2023-05-21T10:00:15.918Z,512.00
2023-05-21T10:01:16.023Z,507.00
2023-05-21T10:02:16.035Z,507.00
2023-05-21T10:03:15.952Z,508.00
2023-05-21T10:04:15.944Z,506.00
2023-05-21T10:05:15.886Z,510.00
2023-05-21T10:06:15.852Z,511.00
2023-05-21T10:07:15.862Z,512.00
2023-05-21T10:08:15.866Z,511.00
2023-05-21T10:09:15.842Z,509.00
2023-05-21T10:10:15.880Z,512.00
2023-05-21T10:11:15.926Z,509.00
2023-05-21T10:12:15.894Z,512.00
2023-05-21T10:13:15.929Z,509.00
2023-05-21T10:14:15.930Z,512.00
2023-05-21T10:15:16.012Z,508.00
2023-05-21T10:16:16.043Z,513.00
2023-05-21T10:17:16.036Z,510.00
2023-05-21T10:18:16.038Z,513.00
2023-05-21T10:19:16.133Z,510.00
2023-05-21T10:20:16.094Z,512.00
2023-05-21T10:21:16.083Z,510.00
2023-05-21T10:22:16.115Z,511.00
2023-05-21T10:23:16.126Z,511.00
2023-05-21T10:24:16.129Z,510.00
2023-05-21T10:25:16.162Z,503.00
2023-05-21T10:26:16.213Z,511.00
2023-05-21T10:27:16.194Z,510.00
2023-05-21T10:28:16.218Z,512.00
2023-05-21T10:29:18.168Z,510.00
2023-05-21T10:30:16.257Z,511.00
2023-05-21T10:31:16.585Z,516.00
2023-05-21T10:32:16.227Z,508.00
2023-05-21T10:33:16.254Z,509.00
2023-05-21T10:34:16.186Z,507.00
2023-05-21T10:35:16.185Z,510.00
2023-05-21T10:36:16.177Z,508.00
2023-05-21T10:37:16.188Z,507.00
2023-05-21T10:38:16.143Z,511.00
2023-05-21T10:39:16.152Z,512.00
2023-05-21T10:40:16.141Z,511.00
2023-05-21T10:41:16.135Z,508.00
2023-05-21T10:42:16.141Z,507.00
2023-05-21T10:43:16.140Z,511.00
2023-05-21T10:44:16.127Z,504.00
2023-05-21T10:45:16.108Z,511.00
2023-05-21T10:46:16.158Z,505.00
2023-05-21T10:47:16.139Z,506.00
2023-05-21T10:48:16.171Z,507.00
2023-05-21T10:49:16.104Z,508.00
2023-05-21T10:50:16.129Z,508.00
2023-05-21T10:51:16.101Z,511.00
2023-05-21T10:52:16.082Z,509.00
2023-05-21T10:53:16.029Z,509.00
2023-05-21T10:54:16.092Z,511.00
2023-05-21T10:55:16.105Z,506.00
2023-05-21T10:56:16.040Z,509.00
2023-05-21T10:57:16.046Z,507.00
2023-05-21T10:58:16.008Z,511.00
2023-05-21T10:59:16.015Z,507.00
2023-05-21T11:00:16.018Z,510.00
2023-05-21T11:01:16.035Z,510.00
2023-05-21T11:02:16.072Z,507.00
2023-05-21T11:03:16.025Z,509.00
2023-05-21T11:04:15.999Z,510.00
2023-05-21T11:05:15.998Z,508.00
2023-05-21T11:06:16.012Z,512.00
2023-05-21T11:07:15.980Z,507.00
2023-05-21T11:08:15.982Z,507.00
2023-05-21T11:09:15.986Z,504.00
2023-05-21T11:10:15.985Z,510.00
2023-05-21T11:11:15.989Z,513.00
2023-05-21T11:12:15.943Z,506.00
2023-05-21T11:13:15.950Z,506.00
2023-05-21T11:14:15.929Z,510.00
2023-05-21T11:15:15.914Z,504.00
2023-05-21T11:16:16.070Z,503.00
2023-05-21T11:17:15.984Z,507.00
2023-05-21T11:18:15.965Z,509.00
2023-05-21T11:19:15.962Z,503.00
2023-05-21T11:20:15.896Z,506.00
2023-05-21T11:21:16.115Z,501.00
2023-05-21T11:22:15.871Z,508.00
2023-05-21T11:23:15.881Z,508.00
2023-05-21T11:24:15.836Z,509.00
2023-05-21T11:25:15.904Z,506.00
2023-05-21T11:26:16.153Z,505.00
2023-05-21T11:27:15.846Z,502.00
2023-05-21T11:28:15.852Z,505.00
2023-05-21T11:29:15.808Z,506.00
2023-05-21T11:30:15.882Z,505.00
2023-05-21T11:31:16.178Z,507.00
2023-05-21T11:32:15.854Z,504.00
2023-05-21T11:33:15.852Z,504.00
2023-05-21T11:34:15.805Z,505.00
2023-05-21T11:35:15.798Z,503.00
2023-05-21T11:36:16.080Z,507.00
2023-05-21T11:37:15.766Z,500.00
2023-05-21T11:38:15.797Z,506.00
2023-05-21T11:39:15.790Z,510.00
2023-05-21T11:40:15.773Z,505.00
2023-05-21T11:41:16.148Z,503.00
2023-05-21T11:42:15.749Z,508.00
2023-05-21T11:43:15.725Z,507.00
2023-05-21T11:44:15.735Z,503.00
2023-05-21T11:45:15.715Z,500.00
2023-05-21T11:46:16.163Z,502.00
2023-05-21T11:47:15.724Z,508.00
2023-05-21T11:48:15.673Z,505.00
2023-05-21T11:49:15.682Z,504.00
2023-05-21T11:50:15.706Z,511.00
2023-05-21T11:51:16.145Z,505.00
2023-05-21T11:52:15.742Z,503.00
2023-05-21T11:53:15.701Z,503.00
2023-05-21T11:54:15.789Z,508.00
2023-05-21T11:55:15.822Z,504.00
2023-05-21T11:56:16.154Z,510.00
2023-05-21T11:57:15.851Z,509.00
2023-05-21T11:58:15.903Z,505.00
2023-05-21T11:59:18.481Z,505.00
2023-05-21T12:00:15.911Z,514.00
2023-05-21T12:01:15.915Z,512.00
2023-05-21T12:02:15.890Z,507.00
2023-05-21T12:03:15.908Z,506.00
2023-05-21T12:04:15.911Z,505.00
2023-05-21T12:05:15.918Z,509.00
2023-05-21T12:06:15.931Z,507.00
2023-05-21T12:07:15.922Z,503.00
2023-05-21T12:08:15.844Z,505.00
2023-05-21T12:09:15.864Z,509.00
2023-05-21T12:10:15.896Z,511.00
2023-05-21T12:11:15.863Z,512.00
2023-05-21T12:12:15.854Z,505.00
2023-05-21T12:13:15.809Z,506.00
2023-05-21T12:14:15.862Z,500.00
2023-05-21T12:15:15.821Z,510.00
2023-05-21T12:16:15.843Z,508.00
2023-05-21T12:17:15.779Z,507.00
2023-05-21T12:18:15.790Z,505.00
2023-05-21T12:19:15.816Z,505.00
2023-05-21T12:20:15.767Z,505.00
2023-05-21T12:21:15.754Z,508.00
2023-05-21T12:22:15.782Z,510.00
2023-05-21T12:23:15.757Z,511.00
2023-05-21T12:24:15.787Z,517.00
2023-05-21T12:25:15.723Z,509.00
2023-05-21T12:26:15.733Z,506.00
2023-05-21T12:27:15.713Z,507.00
2023-05-21T12:28:15.717Z,504.00